George Allen — WDF9749 — position and weather

sailwx.info

Track history (hours):
 
Tides and Currents Weather Stations Pressure Air Temp Water Temp Dewpoint Dewpoint Depression Visibility Wind Speed Wind Dir Waves Ship Positions

George Allen

Owner: Blessey Enterprises, Inc., Harahan, LA. More information available from US FCC via Universal Licensing System and Coast Guard Vessel Documentation Center.

Last reported at 2014-Oct-20 11:33 UTC. Time now 2014-Oct-22 00:11 UTC.
Position N 29°59' W 090°24'.

Length 25 m.

Type: Towing. MMSI: 367508440.

Date/timePositionNaut miles runAvg speedWind from/ knotsBaromVisibWave heightAir tempDewpointWater temp
2014-Oct-20 11:33N 29°59' W 090°24'  
2014-Oct-13 12:33N 29°58' W 090°24'0 0.0
2014-Oct-13 11:31N 29°58' W 090°24'0 0.0
2014-Oct-13 10:33N 29°58' W 090°24'0 0.0
2014-Oct-13 09:33N 29°58' W 090°24'0 0.0
2014-Oct-13 08:32N 29°58' W 090°24'0 0.0
2014-Oct-13 07:33N 29°58' W 090°24'0 0.0
2014-Oct-13 06:33N 29°58' W 090°24'0 0.0
2014-Oct-13 05:31N 29°58' W 090°24'0 0.0
2014-Oct-13 04:24N 29°58' W 090°24'0 0.0
2014-Oct-13 03:33N 29°58' W 090°24'0 0.0
2014-Oct-13 02:33N 29°58' W 090°24'0 0.0
2014-Oct-13 01:33N 29°58' W 090°24'0 0.0
2014-Oct-13 00:33N 29°58' W 090°24'1 1.1
2014-Oct-12 23:32N 29°59' W 090°24'1 1.1
2014-Oct-12 22:33N 29°58' W 090°24'3 2.4
2014-Oct-12 21:30N 29°56' W 090°22'1 0.0
2014-Oct-11 05:33N 29°56' W 090°20'4 4.3
2014-Oct-11 04:33N 29°59' W 090°24'0 0.0
2014-Oct-11 03:33N 29°59' W 090°24'0 0.0
2014-Oct-11 02:33N 29°59' W 090°24'0 0.0
2014-Oct-11 01:28N 29°59' W 090°24'0 0.0
2014-Oct-11 00:33N 29°59' W 090°24'0 0.0
2014-Oct-10 23:33N 29°59' W 090°24'0 0.0
2014-Oct-10 22:33N 29°59' W 090°24'  
Track history (hours):
 
Tides and Currents Weather Stations Pressure Air Temp Water Temp Dewpoint Dewpoint Depression Visibility Wind Speed Wind Dir Waves Ship Positions

George Allen

Owner: Blessey Enterprises, Inc., Harahan, LA. More information available from US FCC via Universal Licensing System and Coast Guard Vessel Documentation Center.

Last reported at 2014-Oct-20 11:33 UTC. Time now 2014-Oct-22 00:11 UTC.
Position N 29°59' W 090°24'.

Length 25 m.

Type: Towing. MMSI: 367508440.

Date/timePositionNaut miles runAvg speedWind from/ knotsBaromVisibWave heightAir tempDewpointWater temp
2014-Oct-20 11:33N 29°59' W 090°24'  
2014-Oct-13 12:33N 29°58' W 090°24'0 0.0
2014-Oct-13 11:31N 29°58' W 090°24'0 0.0
2014-Oct-13 10:33N 29°58' W 090°24'0 0.0
2014-Oct-13 09:33N 29°58' W 090°24'0 0.0
2014-Oct-13 08:32N 29°58' W 090°24'0 0.0
2014-Oct-13 07:33N 29°58' W 090°24'0 0.0
2014-Oct-13 06:33N 29°58' W 090°24'0 0.0
2014-Oct-13 05:31N 29°58' W 090°24'0 0.0
2014-Oct-13 04:24N 29°58' W 090°24'0 0.0
2014-Oct-13 03:33N 29°58' W 090°24'0 0.0
2014-Oct-13 02:33N 29°58' W 090°24'0 0.0
2014-Oct-13 01:33N 29°58' W 090°24'0 0.0
2014-Oct-13 00:33N 29°58' W 090°24'1 1.1
2014-Oct-12 23:32N 29°59' W 090°24'1 1.1
2014-Oct-12 22:33N 29°58' W 090°24'3 2.4
2014-Oct-12 21:30N 29°56' W 090°22'1 0.0
2014-Oct-11 05:33N 29°56' W 090°20'4 4.3
2014-Oct-11 04:33N 29°59' W 090°24'0 0.0
2014-Oct-11 03:33N 29°59' W 090°24'0 0.0
2014-Oct-11 02:33N 29°59' W 090°24'0 0.0
2014-Oct-11 01:28N 29°59' W 090°24'0 0.0
2014-Oct-11 00:33N 29°59' W 090°24'0 0.0
2014-Oct-10 23:33N 29°59' W 090°24'0 0.0
2014-Oct-10 22:33N 29°59' W 090°24'  

Dump ship's entire track history